Time;durP1;ratioP1;P1;durP2;ratioP2;P2;SDS_P1;SDS_P2;PMS_P1;PMS_P2;Temp;Humidity;BMP_temperature;BMP_pressure;BME280_temperature;BME280_humidity;BME280_pressure;Samples;Min_cycle;Max_cycle;Signal;HPM_P1;HPM_P2
2021/09/21 00:00:31;;;;;;;7.70;4.20;;;13.50;99.90;;;;;;5091215;28;20184;-75
2021/09/21 00:02:56;;;;;;;5.60;4.53;;;13.50;99.90;;;;;;5074174;28;20629;-75
2021/09/21 00:05:22;;;;;;;5.97;4.30;;;13.50;99.90;;;;;;5074497;28;20172;-75
2021/09/21 00:07:48;;;;;;;12.10;3.40;;;13.40;99.90;;;;;;5073960;28;20184;-75
2021/09/21 00:10:14;;;;;;;6.77;3.93;;;13.40;99.90;;;;;;5073921;28;20152;-75
2021/09/21 00:12:39;;;;;;;4.17;3.63;;;13.40;99.90;;;;;;5073349;28;20149;-75
2021/09/21 00:15:08;;;;;;;5.17;4.30;;;13.40;99.90;;;;;;5073738;28;20405;-75
2021/09/21 00:17:34;;;;;;;4.33;3.93;;;13.40;99.90;;;;;;5074023;28;20160;-75
2021/09/21 00:20:00;;;;;;;5.00;4.50;;;13.40;99.90;;;;;;5073806;28;20476;-75
2021/09/21 00:22:26;;;;;;;3.97;3.57;;;13.40;99.90;;;;;;5074450;28;20172;-75
2021/09/21 00:24:52;;;;;;;6.00;4.63;;;13.40;99.90;;;;;;5073940;28;20887;-75
2021/09/21 00:27:17;;;;;;;5.17;3.87;;;13.40;99.90;;;;;;5073353;28;20560;-75
2021/09/21 00:29:44;;;;;;;6.10;4.23;;;13.40;99.90;;;;;;5090817;28;20563;-75
2021/09/21 00:32:15;;;;;;;4.87;3.50;;;13.40;99.90;;;;;;5078558;28;20187;-75
2021/09/21 00:34:43;;;;;;;5.27;4.13;;;13.50;99.90;;;;;;5093888;28;20390;-75
2021/09/21 00:37:11;;;;;;;6.80;5.13;;;13.40;99.90;;;;;;5088126;28;20430;-75
2021/09/21 00:39:37;;;;;;;3.93;3.47;;;13.50;99.90;;;;;;5090988;28;20512;-75
2021/09/21 00:42:04;;;;;;;5.90;4.57;;;13.40;99.90;;;;;;5094005;28;20397;-75
2021/09/21 00:44:29;;;;;;;4.17;3.70;;;13.40;99.90;;;;;;5094056;28;20488;-75
2021/09/21 00:46:55;;;;;;;4.00;3.60;;;13.40;99.90;;;;;;5093707;28;20570;-75
2021/09/21 00:49:21;;;;;;;5.33;3.90;;;13.40;99.90;;;;;;5093750;28;20171;-75
2021/09/21 00:51:46;;;;;;;4.00;3.63;;;13.40;99.90;;;;;;5074337;28;20172;-75
2021/09/21 00:54:12;;;;;;;5.00;4.27;;;13.40;99.90;;;;;;5073350;28;20152;-74
2021/09/21 00:56:38;;;;;;;4.40;3.73;;;13.40;99.90;;;;;;5090694;28;20656;-75
2021/09/21 00:59:04;;;;;;;3.50;3.20;;;13.30;99.90;;;;;;5093594;28;20167;-75
2021/09/21 01:01:30;;;;;;;5.10;3.90;;;13.30;99.90;;;;;;5080439;28;20429;-75
2021/09/21 01:03:55;;;;;;;5.10;3.90;;;13.30;99.90;;;;;;5073263;28;20167;-75
2021/09/21 01:06:21;;;;;;;4.03;3.63;;;13.30;99.90;;;;;;5072803;28;20633;-75
2021/09/21 01:08:46;;;;;;;4.90;3.70;;;13.30;99.90;;;;;;5072999;28;20239;-75
2021/09/21 01:11:13;;;;;;;4.77;4.13;;;13.30;99.90;;;;;;5073099;28;20157;-75
2021/09/21 01:13:39;;;;;;;5.17;4.00;;;13.30;99.90;;;;;;5073458;28;20183;-75
2021/09/21 01:16:05;;;;;;;4.40;4.00;;;13.30;99.90;;;;;;5073143;28;20779;-75
2021/09/21 01:18:31;;;;;;;3.80;3.37;;;13.30;99.90;;;;;;5072974;28;20164;-75
2021/09/21 01:21:06;;;;;;;5.43;4.13;;;13.30;99.90;;;;;;5073931;28;20460;-75
2021/09/21 01:23:42;;;;;;;4.20;3.67;;;13.30;99.90;;;;;;5072813;28;20402;-75
2021/09/21 01:26:08;;;;;;;4.90;4.37;;;13.20;99.90;;;;;;5072761;28;20422;-75
2021/09/21 01:28:33;;;;;;;4.30;3.50;;;13.20;99.90;;;;;;5072903;28;20450;-75
2021/09/21 01:30:59;;;;;;;5.27;4.30;;;13.20;99.90;;;;;;5084095;28;20172;-75
2021/09/21 01:33:24;;;;;;;6.30;5.60;;;13.20;99.90;;;;;;5072973;28;20683;-75
2021/09/21 01:35:50;;;;;;;4.30;3.77;;;13.20;99.90;;;;;;5072810;28;20629;-75
2021/09/21 01:38:15;;;;;;;4.10;3.30;;;13.20;99.90;;;;;;5073966;28;20171;-75
2021/09/21 01:40:41;;;;;;;3.87;3.43;;;13.20;99.90;;;;;;5092872;28;20174;-75
2021/09/21 01:43:07;;;;;;;3.87;3.43;;;13.10;99.90;;;;;;5092878;28;20210;-75
2021/09/21 01:45:33;;;;;;;4.93;3.70;;;13.10;99.90;;;;;;5092328;28;20162;-75
2021/09/21 01:47:59;;;;;;;4.50;4.10;;;13.10;99.90;;;;;;5072965;28;20196;-75
2021/09/21 01:50:33;;;;;;;4.93;3.90;;;13.10;99.90;;;;;;5072969;28;20168;-75
2021/09/21 01:53:06;;;;;;;6.03;4.20;;;13.10;99.90;;;;;;5073070;28;20410;-75
2021/09/21 02:01:03;;;;;;;4.23;3.83;;;13.00;99.90;;;;;;5090026;28;20523;-72
2021/09/21 02:03:29;;;;;;;3.83;3.43;;;12.90;99.90;;;;;;5073625;28;20443;-72
2021/09/21 02:05:54;;;;;;;4.53;3.90;;;12.90;99.90;;;;;;5050059;28;20175;-72
2021/09/21 02:08:20;;;;;;;5.97;4.03;;;12.90;99.90;;;;;;5066337;28;20191;-72
2021/09/21 02:10:46;;;;;;;4.77;3.50;;;12.90;99.90;;;;;;5070096;28;20156;-72
2021/09/21 02:13:11;;;;;;;4.23;3.80;;;12.80;99.90;;;;;;5070023;28;20640;-72
2021/09/21 02:15:37;;;;;;;4.63;3.40;;;12.80;99.90;;;;;;5069806;28;20214;-72
2021/09/21 02:18:03;;;;;;;5.90;3.97;;;12.80;99.90;;;;;;5069758;28;20387;-72
2021/09/21 02:20:29;;;;;;;6.20;4.37;;;12.80;99.90;;;;;;5069652;28;20221;-72
2021/09/21 02:22:55;;;;;;;4.43;3.87;;;12.70;99.90;;;;;;5070070;28;20168;-72
2021/09/21 02:25:21;;;;;;;5.70;4.13;;;12.70;99.90;;;;;;5069515;28;20926;-72
2021/09/21 02:27:47;;;;;;;4.50;4.10;;;12.70;99.90;;;;;;5069554;28;20429;-72
2021/09/21 02:30:12;;;;;;;5.20;4.60;;;12.70;99.90;;;;;;5072395;28;20405;-72
2021/09/21 02:32:38;;;;;;;5.13;4.67;;;12.70;99.90;;;;;;5090354;28;20168;-69
2021/09/21 02:35:05;;;;;;;5.47;4.57;;;12.70;99.90;;;;;;5089811;28;20552;-69
2021/09/21 02:37:31;;;;;;;5.07;4.00;;;12.70;99.90;;;;;;5080440;28;20422;-69
2021/09/21 02:39:56;;;;;;;5.10;4.60;;;12.70;99.90;;;;;;5069216;28;20791;-69
2021/09/21 02:42:22;;;;;;;5.00;4.40;;;12.70;99.90;;;;;;5069469;28;20152;-69
2021/09/21 02:44:48;;;;;;;4.70;4.20;;;12.70;99.90;;;;;;5069431;28;20159;-69
2021/09/21 02:47:13;;;;;;;8.20;4.67;;;12.70;99.90;;;;;;5069301;28;20156;-69
2021/09/21 02:49:39;;;;;;;4.67;4.17;;;12.60;99.90;;;;;;5072241;28;20168;-69
2021/09/21 02:52:05;;;;;;;4.67;4.10;;;12.60;99.90;;;;;;5090412;28;20156;-69
2021/09/21 02:54:30;;;;;;;6.30;4.70;;;12.60;99.90;;;;;;5072861;28;20185;-68
2021/09/21 02:56:56;;;;;;;6.00;5.00;;;12.50;99.90;;;;;;5049288;28;20885;-69
2021/09/21 02:59:21;;;;;;;6.40;4.80;;;12.50;99.90;;;;;;5048907;28;20211;-69
2021/09/21 03:01:48;;;;;;;5.70;4.87;;;12.40;99.90;;;;;;5063667;28;20225;-68
2021/09/21 03:04:20;;;;;;;4.97;4.43;;;12.40;99.90;;;;;;5068939;28;20156;-68
2021/09/21 03:06:50;;;;;;;4.87;4.00;;;12.40;99.90;;;;;;5069024;28;20391;-69
2021/09/21 03:09:35;;;;;;;9.33;5.17;;;12.30;99.90;;;;;;5062222;28;20778;-69
2021/09/21 03:12:18;;;;;;;8.23;4.40;;;12.30;99.90;;;;;;5037893;28;20944;-69
2021/09/21 03:17:29;;;;;;;4.90;4.13;;;12.20;99.90;;;;;;5048617;28;20553;-69
2021/09/21 03:19:56;;;;;;;4.80;4.10;;;12.10;99.90;;;;;;5040664;28;20898;-69
2021/09/21 03:22:22;;;;;;;8.40;5.30;;;12.10;99.90;;;;;;5055849;28;20157;-68
2021/09/21 03:24:49;;;;;;;6.17;4.80;;;12.00;99.90;;;;;;5055544;28;20485;-68
2021/09/21 03:27:15;;;;;;;6.43;5.03;;;12.00;99.90;;;;;;5055350;28;20399;-68
2021/09/21 03:29:40;;;;;;;5.07;4.57;;;11.90;99.90;;;;;;5042149;28;20811;-69
2021/09/21 03:32:06;;;;;;;8.10;5.43;;;11.90;99.90;;;;;;5075309;28;20525;-68
2021/09/21 03:34:32;;;;;;;6.23;5.50;;;11.80;99.90;;;;;;5075287;28;20160;-68
2021/09/21 03:36:58;;;;;;;5.30;4.60;;;11.80;99.90;;;;;;5071361;28;20210;-69
2021/09/21 03:39:24;;;;;;;7.03;5.23;;;11.80;99.90;;;;;;5054988;28;20439;-68
2021/09/21 03:41:49;;;;;;;5.87;5.07;;;11.70;99.90;;;;;;5055120;28;20167;-69
2021/09/21 03:44:15;;;;;;;6.50;4.73;;;11.70;99.90;;;;;;5055124;28;20161;-69
2021/09/21 03:46:40;;;;;;;5.13;4.30;;;11.70;99.90;;;;;;5054130;28;20661;-68
2021/09/21 03:49:06;;;;;;;5.67;4.80;;;11.60;99.90;;;;;;5054936;28;20161;-68
2021/09/21 03:51:32;;;;;;;7.33;5.13;;;11.60;99.90;;;;;;5072407;28;20232;-69
2021/09/21 03:53:57;;;;;;;5.70;5.20;;;11.50;99.90;;;;;;5074565;28;20168;-69
2021/09/21 03:56:23;;;;;;;6.00;4.90;;;11.50;99.90;;;;;;5060100;28;20187;-68
2021/09/21 03:58:48;;;;;;;6.47;5.53;;;11.50;99.90;;;;;;5054494;28;20296;-68
2021/09/21 04:01:14;;;;;;;8.03;5.23;;;11.50;99.90;;;;;;5068454;28;20197;-68
2021/09/21 04:03:40;;;;;;;6.60;5.73;;;11.40;99.90;;;;;;5038676;28;20216;-69
2021/09/21 04:06:05;;;;;;;6.87;6.00;;;11.40;99.90;;;;;;5035114;28;20403;-69
2021/09/21 04:08:31;;;;;;;8.43;5.93;;;11.40;99.90;;;;;;5034392;28;20625;-69
2021/09/21 04:10:56;;;;;;;11.63;7.70;;;11.40;99.90;;;;;;5034478;28;20244;-69
2021/09/21 04:13:22;;;;;;;7.70;6.77;;;11.30;99.90;;;;;;5034621;28;20166;-68
2021/09/21 04:15:47;;;;;;;8.60;5.73;;;11.30;99.90;;;;;;5070337;28;20175;-68
2021/09/21 04:18:13;;;;;;;5.93;5.00;;;11.30;99.90;;;;;;5074268;28;20231;-68
2021/09/21 04:20:39;;;;;;;7.30;6.63;;;11.30;99.90;;;;;;5038877;28;20201;-69
2021/09/21 04:23:04;;;;;;;6.73;5.87;;;11.20;99.90;;;;;;5033593;28;20158;-69
2021/09/21 04:25:31;;;;;;;8.60;6.03;;;11.20;99.90;;;;;;5034489;28;20181;-69
2021/09/21 04:27:57;;;;;;;6.73;6.03;;;11.20;99.90;;;;;;5038193;28;20183;-68
2021/09/21 04:30:23;;;;;;;6.23;5.17;;;11.20;99.90;;;;;;5051983;28;21004;-68
2021/09/21 04:32:49;;;;;;;6.50;5.83;;;11.10;99.90;;;;;;5058005;28;20517;-69
2021/09/21 04:35:16;;;;;;;9.33;6.67;;;11.10;99.90;;;;;;5048272;28;20212;-68
2021/09/21 04:37:42;;;;;;;6.37;5.73;;;11.10;99.90;;;;;;5043257;28;20467;-68
2021/09/21 04:40:08;;;;;;;7.30;5.43;;;11.10;99.90;;;;;;5053106;28;20462;-69
2021/09/21 04:42:35;;;;;;;7.80;6.20;;;11.00;99.90;;;;;;5051626;28;20439;-68
2021/09/21 04:45:01;;;;;;;6.90;5.50;;;11.00;99.90;;;;;;5051154;28;20439;-69
2021/09/21 04:47:26;;;;;;;8.10;5.43;;;11.00;99.90;;;;;;5047432;28;20895;-68
2021/09/21 04:49:52;;;;;;;8.10;7.30;;;11.00;99.90;;;;;;5043074;28;20804;-69
2021/09/21 04:52:18;;;;;;;6.17;5.53;;;10.90;99.90;;;;;;5053094;28;20187;-69
2021/09/21 04:54:43;;;;;;;7.17;6.23;;;10.90;99.90;;;;;;5049811;28;20618;-69
2021/09/21 04:57:10;;;;;;;10.40;6.30;;;10.90;99.90;;;;;;5039247;28;20442;-69
2021/09/21 04:59:35;;;;;;;6.67;6.00;;;10.90;99.90;;;;;;5034507;28;20200;-69
2021/09/21 05:02:01;;;;;;;7.93;6.10;;;10.90;99.90;;;;;;5049444;28;20430;-69
2021/09/21 05:04:27;;;;;;;7.50;5.67;;;10.90;99.90;;;;;;5049162;28;20219;-69
2021/09/21 05:06:52;;;;;;;9.00;6.50;;;10.80;99.90;;;;;;5037048;28;20243;-69
2021/09/21 05:09:18;;;;;;;8.10;6.43;;;10.80;99.90;;;;;;5042818;28;20279;-68
2021/09/21 05:11:45;;;;;;;11.03;5.77;;;10.80;99.90;;;;;;5048594;28;20177;-69
2021/09/21 05:14:12;;;;;;;8.97;6.80;;;10.80;99.90;;;;;;5047612;28;20176;-68
2021/09/21 05:16:38;;;;;;;8.27;6.80;;;10.80;99.90;;;;;;5043179;28;20503;-68
2021/09/21 05:19:04;;;;;;;9.33;7.10;;;10.80;99.90;;;;;;5051576;28;20453;-69
2021/09/21 05:21:30;;;;;;;8.13;6.83;;;10.70;99.90;;;;;;5053318;28;20446;-69
2021/09/21 05:23:55;;;;;;;7.70;6.90;;;10.70;99.90;;;;;;5045573;28;20263;-69
2021/09/21 05:26:21;;;;;;;9.57;6.40;;;10.70;99.90;;;;;;5042502;28;20478;-68
2021/09/21 05:28:46;;;;;;;7.90;6.30;;;10.70;99.90;;;;;;5033963;28;20208;-68
2021/09/21 05:31:12;;;;;;;10.43;7.43;;;10.70;99.90;;;;;;5041800;28;20176;-69
2021/09/21 05:33:38;;;;;;;8.13;7.10;;;10.70;99.90;;;;;;5039522;28;20649;-69
2021/09/21 05:36:04;;;;;;;7.20;6.40;;;10.70;99.90;;;;;;5046811;28;20704;-69
2021/09/21 05:38:30;;;;;;;7.30;5.50;;;10.60;99.90;;;;;;5056489;28;20521;-69
2021/09/21 05:40:55;;;;;;;7.33;6.20;;;10.60;99.90;;;;;;5046707;28;20765;-69
2021/09/21 05:43:21;;;;;;;7.30;6.60;;;10.60;99.90;;;;;;5052705;28;20443;-69
2021/09/21 05:45:47;;;;;;;6.87;6.23;;;10.60;99.90;;;;;;5052688;28;20176;-69
2021/09/21 05:48:13;;;;;;;7.53;6.53;;;10.60;99.90;;;;;;5058008;28;20177;-69
2021/09/21 05:50:39;;;;;;;8.67;6.37;;;10.50;99.90;;;;;;5057514;28;20876;-69
2021/09/21 05:53:05;;;;;;;11.20;6.27;;;10.60;99.90;;;;;;5052386;28;20475;-69
2021/09/21 05:55:30;;;;;;;6.83;6.20;;;10.50;99.90;;;;;;5051329;28;20224;-68
2021/09/21 05:57:56;;;;;;;9.70;6.90;;;10.50;99.90;;;;;;5043103;28;20176;-69
2021/09/21 06:00:22;;;;;;;9.20;5.67;;;10.50;99.90;;;;;;5042753;28;20627;-69
2021/09/21 06:02:47;;;;;;;7.87;5.90;;;10.50;99.90;;;;;;5039898;28;20188;-69
2021/09/21 06:05:13;;;;;;;8.03;6.07;;;10.50;99.90;;;;;;5048636;28;20783;-69
2021/09/21 06:07:54;;;;;;;8.40;7.10;;;10.50;99.90;;;;;;5046383;28;20177;-69
2021/09/21 06:10:21;;;;;;;8.47;7.30;;;10.60;99.90;;;;;;5056712;28;20184;-69
2021/09/21 06:12:48;;;;;;;11.37;7.40;;;10.60;99.90;;;;;;5049125;28;20529;-69
2021/09/21 06:15:15;;;;;;;16.87;7.40;;;10.60;99.90;;;;;;5043272;28;20501;-69
2021/09/21 06:17:41;;;;;;;11.23;7.37;;;10.60;99.90;;;;;;5049180;28;20801;-69
2021/09/21 06:20:09;;;;;;;9.93;7.90;;;10.70;99.90;;;;;;5058791;28;20442;-69
2021/09/21 06:22:37;;;;;;;14.83;8.10;;;10.70;99.90;;;;;;5054207;28;20449;-69
2021/09/21 06:25:04;;;;;;;10.17;7.70;;;10.70;99.90;;;;;;5064092;28;20425;-69
2021/09/21 06:27:34;;;;;;;9.10;7.50;;;10.70;99.90;;;;;;5055495;28;20434;-69
2021/09/21 06:30:01;;;;;;;12.87;6.80;;;10.80;99.90;;;;;;5056376;28;20449;-69
2021/09/21 06:32:27;;;;;;;11.60;8.57;;;10.80;99.90;;;;;;5056965;28;20446;-69
2021/09/21 06:34:53;;;;;;;9.97;7.13;;;10.80;99.90;;;;;;5046372;28;20428;-69
2021/09/21 06:37:18;;;;;;;13.30;7.50;;;10.90;99.90;;;;;;5050146;28;20287;-69
2021/09/21 06:39:44;;;;;;;7.70;6.90;;;11.00;99.90;;;;;;5057108;28;20202;-68
2021/09/21 06:42:09;;;;;;;11.87;7.33;;;11.00;99.90;;;;;;5056074;28;20222;-69
2021/09/21 06:44:35;;;;;;;15.53;8.00;;;11.10;99.90;;;;;;5056546;28;20177;-69
2021/09/21 06:47:00;;;;;;;11.30;6.67;;;11.10;99.90;;;;;;5057520;28;20345;-69
2021/09/21 06:49:26;;;;;;;7.50;6.63;;;11.20;99.90;;;;;;5061218;28;20222;-69
2021/09/21 06:51:52;;;;;;;10.20;7.27;;;11.20;99.90;;;;;;5052468;28;20181;-69
2021/09/21 06:54:17;;;;;;;11.93;7.40;;;11.30;99.90;;;;;;5062172;28;20650;-69
2021/09/21 06:56:43;;;;;;;7.30;6.23;;;11.30;99.90;;;;;;5053018;28;20628;-69
2021/09/21 06:59:11;;;;;;;8.87;6.30;;;11.40;99.90;;;;;;5052510;28;20601;-69
2021/09/21 07:01:36;;;;;;;8.30;6.53;;;11.40;99.90;;;;;;5055990;28;20189;-69
2021/09/21 07:04:02;;;;;;;8.50;6.60;;;11.50;99.90;;;;;;5050943;28;20465;-69
2021/09/21 07:06:28;;;;;;;11.13;7.40;;;11.50;99.90;;;;;;5060038;28;20618;-69
2021/09/21 07:08:53;;;;;;;9.30;7.23;;;11.60;99.90;;;;;;5053316;28;20263;-69
2021/09/21 07:11:20;;;;;;;9.90;6.53;;;11.60;99.90;;;;;;5043322;28;20195;-69
2021/09/21 07:13:46;;;;;;;14.67;7.43;;;11.70;99.90;;;;;;5049791;28;20190;-69
2021/09/21 07:16:11;;;;;;;9.47;6.70;;;11.70;99.90;;;;;;5060257;28;20453;-69
2021/09/21 07:18:37;;;;;;;8.13;6.03;;;11.80;99.90;;;;;;5058058;28;20227;-69
2021/09/21 07:21:03;;;;;;;9.57;6.60;;;11.80;99.90;;;;;;5056530;28;20204;-69
2021/09/21 07:23:28;;;;;;;9.17;6.50;;;11.80;99.90;;;;;;5053888;28;20184;-69
2021/09/21 07:25:54;;;;;;;7.73;6.47;;;11.90;99.90;;;;;;5049255;28;20193;-69
2021/09/21 07:28:19;;;;;;;7.80;6.50;;;11.90;99.90;;;;;;5040227;28;20282;-69
2021/09/21 07:30:45;;;;;;;12.63;7.40;;;12.00;99.90;;;;;;5039452;28;20188;-69
2021/09/21 07:33:15;;;;;;;9.50;6.70;;;12.00;99.90;;;;;;5036006;28;20191;-69
2021/09/21 07:35:41;;;;;;;11.87;6.23;;;12.10;99.90;;;;;;5043967;28;20173;-69
2021/09/21 07:38:06;;;;;;;7.97;5.87;;;12.20;99.90;;;;;;5040415;28;20518;-69
2021/09/21 07:40:35;;;;;;;9.97;7.30;;;12.20;99.90;;;;;;5036898;28;20526;-69
2021/09/21 07:43:02;;;;;;;7.60;6.20;;;12.30;99.90;;;;;;5044677;28;20187;-69
2021/09/21 07:45:28;;;;;;;9.87;6.70;;;12.40;99.90;;;;;;5049125;28;20519;-69
2021/09/21 07:47:54;;;;;;;9.83;6.93;;;12.40;99.90;;;;;;5044422;28;20576;-69
2021/09/21 07:50:20;;;;;;;9.70;6.13;;;12.50;99.90;;;;;;5040730;28;20555;-69
2021/09/21 07:52:46;;;;;;;9.87;5.90;;;12.50;99.90;;;;;;5052168;28;20192;-69
2021/09/21 07:55:12;;;;;;;11.43;6.03;;;12.60;99.90;;;;;;5038820;28;20802;-69
2021/09/21 07:57:40;;;;;;;6.70;6.00;;;12.80;99.90;;;;;;5041848;28;20435;-69
2021/09/21 08:00:08;;;;;;;15.17;6.40;;;12.90;99.90;;;;;;5045324;28;20291;-69
2021/09/21 08:02:33;;;;;;;6.70;5.10;;;13.00;99.90;;;;;;5043172;28;20518;-69
2021/09/21 08:04:59;;;;;;;8.13;4.70;;;13.20;99.90;;;;;;5051145;28;20514;-69
2021/09/21 08:07:28;;;;;;;7.53;4.77;;;13.30;99.90;;;;;;5062615;28;20187;-69
2021/09/21 08:09:55;;;;;;;6.20;5.50;;;13.40;99.90;;;;;;5056553;28;20176;-69
2021/09/21 08:12:21;;;;;;;6.27;4.77;;;13.50;99.90;;;;;;5043333;28;20454;-69
2021/09/21 08:14:49;;;;;;;5.80;4.47;;;13.60;99.90;;;;;;5056316;28;20914;-69
2021/09/21 08:17:16;;;;;;;7.77;4.57;;;13.80;99.90;;;;;;5051948;28;20603;-69
2021/09/21 08:19:41;;;;;;;7.17;4.00;;;13.90;99.90;;;;;;5057009;28;20491;-69
2021/09/21 08:22:07;;;;;;;6.17;4.00;;;14.00;99.90;;;;;;5051880;28;20943;-69
2021/09/21 08:24:35;;;;;;;3.87;2.87;;;14.10;99.90;;;;;;5057583;28;20176;-69
2021/09/21 08:27:01;;;;;;;3.57;3.03;;;14.20;99.90;;;;;;5051855;28;20215;-69
2021/09/21 08:29:27;;;;;;;4.10;3.30;;;14.30;99.90;;;;;;5045940;28;20440;-69
2021/09/21 08:31:52;;;;;;;3.63;2.63;;;14.40;99.90;;;;;;5057657;28;20176;-69
2021/09/21 08:34:18;;;;;;;3.83;3.00;;;14.60;99.90;;;;;;5049541;28;20441;-69
2021/09/21 08:36:44;;;;;;;3.47;2.33;;;14.60;99.90;;;;;;5058981;28;20178;-69
2021/09/21 08:39:10;;;;;;;3.70;2.20;;;14.70;99.90;;;;;;5049247;28;20291;-69
2021/09/21 08:41:36;;;;;;;6.10;2.60;;;14.80;99.90;;;;;;5054712;28;20218;-70
2021/09/21 08:44:03;;;;;;;3.10;1.90;;;14.90;99.90;;;;;;5050048;28;20797;-69
2021/09/21 08:46:29;;;;;;;1.87;1.70;;;14.90;99.90;;;;;;5039330;28;20475;-69
2021/09/21 08:48:54;;;;;;;3.43;2.87;;;15.00;99.90;;;;;;5038613;28;23233;-69
2021/09/21 08:51:20;;;;;;;4.33;2.60;;;15.00;99.90;;;;;;5042019;28;20543;-69
2021/09/21 08:53:46;;;;;;;3.00;2.70;;;15.10;99.80;;;;;;5036021;28;20275;-70
2021/09/21 08:56:11;;;;;;;3.10;2.20;;;15.10;98.30;;;;;;5045009;28;20206;-69
2021/09/21 08:58:38;;;;;;;2.03;1.70;;;15.20;98.40;;;;;;5029280;28;20265;-69
2021/09/21 09:03:52;;;;;;;4.60;2.43;;;15.30;99.10;;;;;;5117084;27;21087;-70
2021/09/21 09:06:18;;;;;;;2.20;1.80;;;15.50;99.10;;;;;;5104194;28;20426;-70
2021/09/21 09:08:43;;;;;;;2.30;1.83;;;15.60;97.50;;;;;;5105450;28;20492;-70
2021/09/21 09:13:57;;;;;;;2.40;1.70;;;15.90;94.30;;;;;;5048399;28;20877;-69
2021/09/21 09:16:25;;;;;;;2.50;1.97;;;16.00;93.90;;;;;;5042478;28;20426;-69
2021/09/21 09:19:02;;;;;;;2.40;2.17;;;16.20;93.70;;;;;;5043519;28;20447;-69
2021/09/21 09:21:31;;;;;;;3.00;2.70;;;16.50;93.30;;;;;;5038709;28;20794;-69
2021/09/21 09:23:59;;;;;;;2.40;2.13;;;16.90;93.00;;;;;;5043385;28;20752;-69
2021/09/21 09:26:25;;;;;;;3.70;2.43;;;17.30;91.70;;;;;;5044853;28;20431;-70
2021/09/21 09:28:53;;;;;;;3.90;2.30;;;17.60;91.20;;;;;;5045169;28;20428;-69
2021/09/21 09:31:29;;;;;;;5.67;2.40;;;17.90;90.00;;;;;;5043792;28;20180;-69
2021/09/21 09:34:18;;;;;;;3.00;2.03;;;18.10;89.70;;;;;;5043562;28;20436;-69
2021/09/21 09:36:49;;;;;;;3.33;2.50;;;18.30;90.00;;;;;;5042414;28;20426;-69
2021/09/21 09:39:17;;;;;;;4.40;2.40;;;18.40;87.90;;;;;;5045478;28;20505;-70
2021/09/21 09:41:46;;;;;;;4.80;2.80;;;18.20;86.70;;;;;;5044618;28;20455;-69
2021/09/21 09:44:17;;;;;;;3.53;2.47;;;18.20;89.30;;;;;;5048706;28;20449;-69
2021/09/21 09:49:27;;;;;;;1.90;1.70;;;18.10;87.90;;;;;;5039419;27;20947;-69
2021/09/21 09:51:55;;;;;;;3.57;2.37;;;17.70;84.90;;;;;;5021680;28;20455;-69
2021/09/21 09:54:21;;;;;;;3.80;2.90;;;17.60;87.10;;;;;;5027649;28;20437;-70
2021/09/21 09:56:47;;;;;;;2.50;2.30;;;17.50;87.30;;;;;;5023437;28;20521;-70
2021/09/21 09:59:15;;;;;;;4.87;2.60;;;17.40;87.60;;;;;;5024122;28;20885;-70
2021/09/21 10:01:42;;;;;;;2.40;1.90;;;17.40;88.70;;;;;;5018603;28;20181;-69
2021/09/21 10:04:07;;;;;;;3.27;2.13;;;17.30;89.40;;;;;;5016394;28;20987;-69
2021/09/21 10:06:34;;;;;;;2.90;1.90;;;17.30;88.80;;;;;;5019468;28;20435;-70
2021/09/21 10:09:00;;;;;;;2.43;2.10;;;17.20;88.50;;;;;;5018750;28;20212;-69
2021/09/21 10:11:29;;;;;;;1.93;1.57;;;17.20;88.20;;;;;;5022266;28;20849;-69
2021/09/21 10:13:57;;;;;;;2.73;2.03;;;17.20;88.00;;;;;;5016803;28;20436;-69
2021/09/21 10:16:23;;;;;;;2.50;1.97;;;17.10;88.60;;;;;;5019127;28;20472;-69
2021/09/21 10:18:53;;;;;;;3.57;1.80;;;17.00;89.20;;;;;;5022446;28;20814;-69
2021/09/21 10:21:30;;;;;;;2.10;1.80;;;17.00;90.20;;;;;;5016105;28;20219;-69
2021/09/21 10:23:59;;;;;;;2.10;1.90;;;17.10;91.20;;;;;;5027011;28;20439;-69
2021/09/21 10:26:26;;;;;;;2.90;2.57;;;17.10;90.00;;;;;;5014509;28;20560;-69
2021/09/21 10:28:52;;;;;;;2.90;2.37;;;17.10;89.90;;;;;;5019418;28;20467;-69
2021/09/21 10:31:19;;;;;;;4.00;2.70;;;17.20;90.50;;;;;;5027891;28;20997;-69
2021/09/21 10:33:46;;;;;;;4.00;2.50;;;17.30;90.90;;;;;;5014100;28;20444;-69
2021/09/21 10:36:21;;;;;;;2.57;2.00;;;17.30;90.70;;;;;;5022484;28;20435;-70
2021/09/21 10:38:59;;;;;;;2.13;1.87;;;17.30;90.50;;;;;;5033093;28;20792;-69
2021/09/21 10:41:26;;;;;;;4.13;2.80;;;17.20;90.40;;;;;;5019444;28;20544;-69
2021/09/21 10:44:04;;;;;;;4.10;2.87;;;17.20;90.70;;;;;;5014657;28;20454;-69
2021/09/21 10:46:42;;;;;;;6.40;2.73;;;17.20;91.10;;;;;;5020502;28;20917;-69
2021/09/21 10:49:09;;;;;;;2.70;2.20;;;17.20;91.00;;;;;;5021027;28;20499;-69
2021/09/21 10:51:34;;;;;;;2.17;1.73;;;17.10;91.00;;;;;;5023988;28;20431;-69
2021/09/21 10:54:03;;;;;;;4.27;2.03;;;17.10;91.30;;;;;;5021648;28;20435;-69
2021/09/21 10:56:29;;;;;;;4.20;2.90;;;17.20;90.70;;;;;;5022650;28;20192;-70
2021/09/21 10:58:57;;;;;;;2.70;1.73;;;17.20;90.70;;;;;;5020024;28;20896;-69
2021/09/21 11:01:22;;;;;;;6.10;2.70;;;17.20;90.50;;;;;;5012107;28;20190;-69
2021/09/21 11:03:48;;;;;;;3.00;1.87;;;17.20;90.90;;;;;;5008789;28;20887;-69
2021/09/21 11:06:15;;;;;;;6.20;2.00;;;17.30;90.10;;;;;;5007001;28;20200;-69
2021/09/21 11:08:41;;;;;;;2.27;1.73;;;17.30;90.00;;;;;;5002558;28;20340;-70
2021/09/21 11:11:08;;;;;;;2.60;1.70;;;17.30;90.00;;;;;;5005364;28;20953;-69
2021/09/21 11:13:37;;;;;;;2.20;1.47;;;17.30;89.40;;;;;;5002449;28;20991;-69
2021/09/21 11:16:08;;;;;;;2.77;1.80;;;17.30;88.30;;;;;;5009148;28;20475;-69
2021/09/21 11:18:35;;;;;;;3.20;1.60;;;17.40;87.10;;;;;;5014760;28;20991;-69
2021/09/21 11:21:04;;;;;;;2.63;1.80;;;17.40;87.30;;;;;;5015933;28;20770;-69
2021/09/21 11:23:33;;;;;;;2.43;2.07;;;17.40;86.90;;;;;;5008170;28;20440;-69
2021/09/21 11:26:02;;;;;;;3.63;1.70;;;17.40;86.80;;;;;;4997260;28;20802;-69
2021/09/21 11:28:30;;;;;;;3.30;2.40;;;17.40;85.90;;;;;;4997257;28;20461;-70
2021/09/21 11:30:57;;;;;;;1.87;1.43;;;17.50;85.80;;;;;;5001450;28;21262;-69
2021/09/21 11:33:25;;;;;;;1.40;1.30;;;17.40;85.50;;;;;;5001222;28;20436;-69
2021/09/21 11:35:54;;;;;;;1.20;1.10;;;17.40;83.90;;;;;;4999823;28;20794;-70
2021/09/21 11:38:22;;;;;;;1.47;1.20;;;17.40;83.40;;;;;;5005550;28;20950;-70
2021/09/21 11:40:50;;;;;;;3.30;1.80;;;17.30;82.70;;;;;;5001683;28;20431;-69
2021/09/21 11:43:15;;;;;;;2.07;1.67;;;17.40;83.70;;;;;;5008694;28;20443;-70
2021/09/21 11:45:43;;;;;;;1.77;1.40;;;17.30;83.60;;;;;;5010823;28;20445;-70
2021/09/21 11:48:10;;;;;;;1.40;1.20;;;17.40;83.10;;;;;;5006072;28;20203;-69
2021/09/21 11:50:37;;;;;;;1.63;1.50;;;17.40;83.70;;;;;;5001320;28;20497;-70
2021/09/21 11:53:12;;;;;;;1.60;1.30;;;17.40;84.50;;;;;;5002595;28;20433;-69
2021/09/21 11:55:41;;;;;;;1.73;1.40;;;17.40;83.90;;;;;;5011431;28;20460;-70
2021/09/21 11:58:10;;;;;;;5.00;2.93;;;17.50;85.50;;;;;;5002233;28;20425;-69
2021/09/21 12:03:19;;;;;;;3.80;1.93;;;17.60;87.10;;;;;;5044095;28;21139;-68
2021/09/21 12:05:47;;;;;;;2.90;1.97;;;17.60;85.40;;;;;;5032902;28;20425;-69
2021/09/21 12:10:54;;;;;;;1.37;1.27;;;17.60;85.10;;;;;;5082619;28;20568;-68
2021/09/21 12:13:22;;;;;;;4.27;1.70;;;17.70;84.30;;;;;;5069226;28;20936;-68
2021/09/21 12:15:50;;;;;;;4.00;2.17;;;17.70;83.70;;;;;;5072992;28;20431;-68
2021/09/21 12:18:16;;;;;;;2.20;1.60;;;17.80;85.00;;;;;;5069347;28;20430;-68
2021/09/21 12:20:50;;;;;;;3.73;2.90;;;17.80;84.90;;;;;;5076425;28;20432;-68
2021/09/21 12:23:15;;;;;;;1.40;1.20;;;17.90;84.70;;;;;;5079037;28;20969;-68
2021/09/21 12:25:42;;;;;;;2.23;1.70;;;17.90;83.40;;;;;;5074753;28;20430;-68
2021/09/21 12:28:09;;;;;;;2.03;1.90;;;17.90;85.50;;;;;;5067851;28;20174;-68
2021/09/21 12:30:41;;;;;;;5.80;1.50;;;17.90;84.40;;;;;;5076927;28;20463;-68
2021/09/21 12:33:09;;;;;;;1.93;1.47;;;17.90;84.20;;;;;;5066808;28;20874;-68
2021/09/21 12:35:41;;;;;;;3.67;1.80;;;17.90;84.70;;;;;;5061055;28;20440;-68
2021/09/21 12:38:11;;;;;;;1.97;1.57;;;17.80;84.50;;;;;;5066850;28;20433;-67
2021/09/21 12:40:59;;;;;;;2.30;1.90;;;17.80;84.30;;;;;;5066567;28;20437;-67
2021/09/21 12:43:28;;;;;;;2.37;1.73;;;17.80;84.50;;;;;;5059629;28;20517;-68
2021/09/21 12:45:57;;;;;;;3.00;2.20;;;17.70;85.30;;;;;;5056971;28;20521;-69
2021/09/21 12:48:26;;;;;;;1.67;1.40;;;17.70;85.30;;;;;;5066546;28;20464;-69
2021/09/21 12:50:56;;;;;;;1.57;1.10;;;17.70;84.80;;;;;;5058785;28;20483;-69
2021/09/21 12:53:22;;;;;;;2.20;2.00;;;17.60;85.90;;;;;;5055188;28;20460;-69
2021/09/21 12:55:58;;;;;;;1.70;1.60;;;17.60;86.90;;;;;;5059674;28;20437;-68
2021/09/21 12:58:26;;;;;;;1.40;1.30;;;17.50;87.30;;;;;;5062119;28;20511;-69
2021/09/21 13:00:52;;;;;;;2.70;1.80;;;17.50;87.50;;;;;;5057551;28;20577;-69
2021/09/21 13:03:18;;;;;;;1.50;1.20;;;17.40;86.60;;;;;;5073573;28;20436;-69
2021/09/21 13:05:43;;;;;;;2.40;2.00;;;17.40;87.60;;;;;;5061030;28;20453;-69